Time;durP1;ratioP1;P1;durP2;ratioP2;P2;SDS_P1;SDS_P2;PMS_P1;PMS_P2;Temp;Humidity;BMP_temperature;BMP_pressure;BME280_temperature;BME280_humidity;BME280_pressure;Samples;Min_cycle;Max_cycle;Signal;HPM_P1;HPM_P2
2023/10/06 00:02:09;;;;;;;33.72;27.55;;;;;;;;;;5025794;28;20388;-70
2023/10/06 00:04:41;;;;;;;33.63;26.35;;;;;;;;;;5025158;28;20022;-70
2023/10/06 00:07:08;;;;;;;31.92;26.23;;;;;;;;;;5025530;28;20025;-70
2023/10/06 00:09:35;;;;;;;35.22;26.77;;;;;;;;;;5029812;28;20032;-70
2023/10/06 00:12:05;;;;;;;33.42;26.20;;;;;;;;;;5027250;28;20491;-70
2023/10/06 00:14:40;;;;;;;31.95;28.30;;;;;;;;;;5017195;28;20222;-70
2023/10/06 00:17:11;;;;;;;32.17;26.52;;;;;;;;;;5035341;28;20037;-71
2023/10/06 00:19:39;;;;;;;35.70;26.98;;;;;;;;;;4989518;28;20176;-71
2023/10/06 00:22:17;;;;;;;34.00;26.75;;;;;;;;;;5025544;28;20028;-71
2023/10/06 00:24:50;;;;;;;32.88;26.25;;;;;;;;;;5012582;28;20030;-71
2023/10/06 00:27:24;;;;;;;33.92;26.98;;;37.50;99.90;;;;;;5033738;28;20025;-71
2023/10/06 00:29:59;;;;;;;;;;;36.80;99.90;;;;;;5001173;28;20382;-71
2023/10/06 00:34:54;;;;;;;30.15;24.88;;;36.70;99.90;;;;;;5008623;28;19913;-71
2023/10/06 00:37:23;;;;;;;33.45;25.60;;;36.70;99.90;;;;;;4993585;28;20032;-72
2023/10/06 00:39:50;;;;;;;29.38;25.98;;;36.70;99.90;;;;;;5009623;28;20034;-72
2023/10/06 00:42:20;;;;;;;32.17;26.52;;;36.70;99.90;;;;;;5028590;28;20029;-72
2023/10/06 00:44:46;;;;;;;30.23;23.60;;;36.70;99.90;;;;;;5029490;28;20021;-72
2023/10/06 00:47:13;;;;;;;28.38;22.55;;;36.70;99.90;;;;;;5018625;28;20245;-71
2023/10/06 00:49:39;;;;;;;26.38;21.17;;;36.70;99.90;;;;;;5000208;28;20054;-71
2023/10/06 00:52:06;;;;;;;28.48;22.42;;;36.60;99.90;;;;;;4995528;28;20437;-71
2023/10/06 00:54:33;;;;;;;28.98;22.30;;;36.60;99.90;;;;;;5004609;28;20434;-71
2023/10/06 00:57:08;;;;;;;27.98;21.85;;;36.60;99.90;;;;;;5035133;28;20156;-72
2023/10/06 00:59:37;;;;;;;24.80;21.40;;;36.60;99.90;;;;;;5026502;28;20215;-72
2023/10/06 01:02:09;;;;;;;29.52;22.27;;;36.60;99.90;;;;;;5022405;28;20025;-72
2023/10/06 01:04:45;;;;;;;24.40;20.50;;;36.50;99.90;;;;;;5020128;28;20041;-71
2023/10/06 01:07:16;;;;;;;26.08;21.08;;;36.50;99.90;;;;;;5022730;28;20376;-72
2023/10/06 01:10:07;;;;;;;27.00;22.00;;;36.50;99.90;;;;;;5019539;28;20052;-70
2023/10/06 01:12:33;;;;;;;27.33;21.10;;;36.60;99.90;;;;;;5034696;28;20025;-71
2023/10/06 01:15:17;;;;;;;27.90;21.25;;;36.60;99.90;;;;;;5015135;28;20057;-72
2023/10/06 01:17:57;;;;;;;24.92;19.38;;;36.60;99.90;;;;;;5034399;28;20049;-71
2023/10/06 01:24:36;;;;;;;25.55;20.02;;;36.50;99.90;;;;;;4989468;28;20097;-70
2023/10/06 01:27:06;;;;;;;24.58;21.05;;;36.50;99.90;;;;;;5008631;28;20045;-71
2023/10/06 01:29:32;;;;;;;27.75;20.15;;;36.40;99.90;;;;;;4989745;28;20098;-71
2023/10/06 01:32:03;;;;;;;27.25;20.58;;;36.40;99.90;;;;;;4999008;28;20026;-71
2023/10/06 01:34:34;;;;;;;28.33;22.08;;;36.40;99.90;;;;;;4991138;28;20101;-71
2023/10/06 01:37:07;;;;;;;26.67;21.63;;;36.40;99.90;;;;;;4985401;28;20051;-71
2023/10/06 01:39:35;;;;;;;27.42;21.75;;;36.40;99.90;;;;;;4985805;28;20022;-71
2023/10/06 01:42:07;;;;;;;34.15;22.50;;;36.40;99.90;;;;;;5003267;28;20049;-71
2023/10/06 01:44:34;;;;;;;25.48;21.55;;;;;;;;;;5006274;28;20034;-71
2023/10/06 01:47:04;;;;;;;26.55;22.20;;;;;;;;;;5004675;28;20042;-71
2023/10/06 01:49:31;;;;;;;29.88;23.30;;;;;;;;;;4979569;28;20365;-71
2023/10/06 01:51:57;;;;;;;30.63;23.38;;;;;;;;;;4993551;28;20046;-71
2023/10/06 01:54:27;;;;;;;35.38;24.27;;;;;;;;;;4984203;28;20044;-71
2023/10/06 01:56:54;;;;;;;34.80;25.90;;;;;;;;;;4995947;28;20480;-71
2023/10/06 01:59:20;;;;;;;35.30;25.55;;;;;;;;;;5018022;28;20026;-71
2023/10/06 02:01:47;;;;;;;33.55;25.35;;;;;;;;;;5000948;28;20030;-71
2023/10/06 02:04:14;;;;;;;31.13;24.17;;;;;;;;;;5016334;28;20115;-71
2023/10/06 02:06:48;;;;;;;33.78;25.08;;;;;;;;;;5033981;28;20100;-71
2023/10/06 02:09:18;;;;;;;33.03;25.08;;;;;;;;;;5022384;28;20041;-71
2023/10/06 02:11:51;;;;;;;34.08;27.25;;;;;;;;;;5014378;28;20556;-71
2023/10/06 02:14:17;;;;;;;32.00;25.55;;;;;;;;;;5027224;28;20026;-70
2023/10/06 02:16:48;;;;;;;34.30;26.77;;;;;;;;;;5023989;28;20065;-70
2023/10/06 02:19:17;;;;;;;31.58;26.05;;;;;;;;;;5011566;28;20067;-71
2023/10/06 02:21:44;;;;;;;34.28;27.95;;;;;;;;;;4993510;28;20038;-70
2023/10/06 02:24:10;;;;;;;37.97;28.45;;;;;;;;;;5029544;28;20450;-71
2023/10/06 02:29:42;;;;;;;37.30;27.45;;;;;;;;;;5019092;28;20029;-72
2023/10/06 02:32:08;;;;;;;32.15;25.77;;;;;;;;;;5023323;28;20049;-71
2023/10/06 02:34:38;;;;;;;36.08;27.05;;;;;;;;;;5006549;28;20073;-72
2023/10/06 02:37:05;;;;;;;35.92;26.83;;;;;;;;;;5033643;28;20029;-71
2023/10/06 02:39:34;;;;;;;32.97;26.40;;;;;;;;;;4999412;28;20029;-72
2023/10/06 02:42:08;;;;;;;37.05;27.38;;;;;;;;;;5011744;28;20038;-71
2023/10/06 02:44:38;;;;;;;32.30;25.85;;;;;;;;;;5009771;28;20105;-71
2023/10/06 02:47:09;;;;;;;35.63;26.63;;;;;;;;;;5011637;28;20022;-71
2023/10/06 02:49:37;;;;;;;31.95;24.95;;;;;;;;;;4984167;28;20026;-72
2023/10/06 02:52:15;;;;;;;34.20;25.70;;;;;;;;;;4996052;28;20033;-71
2023/10/06 02:55:04;;;;;;;31.27;24.73;;;;;;;;;;5028828;28;20438;-71
2023/10/06 02:57:35;;;;;;;30.50;24.35;;;;;;;;;;4995231;28;20487;-71
2023/10/06 03:00:28;;;;;;;31.48;24.75;;;;;;;;;;5024648;28;20037;-71
2023/10/06 03:02:48;;;;;;;27.30;23.25;;;;;;;;;;5014982;28;20497;-71
2023/10/06 03:05:14;;;;;;;33.38;25.73;;;;;;;;;;5000217;28;20021;-71
2023/10/06 03:07:45;;;;;;;29.85;23.40;;;;;;;;;;5032651;28;20029;-71
2023/10/06 03:10:12;;;;;;;32.88;24.63;;;;;;;;;;5032303;28;20017;-72
2023/10/06 03:12:41;;;;;;;33.10;24.58;;;;;;;;;;5032369;28;20017;-71
2023/10/06 03:15:27;;;;;;;33.67;25.55;;;;;;;;;;5032080;28;20088;-71
2023/10/06 03:17:54;;;;;;;29.70;24.48;;;;;;;;;;5032048;28;20116;-71
2023/10/06 03:20:25;;;;;;;31.73;23.70;;;;;;;;;;5011492;28;20055;-71
2023/10/06 03:22:51;;;;;;;32.05;24.20;;;;;;;;;;4994809;28;20491;-71
2023/10/06 03:25:20;;;;;;;30.45;24.33;;;;;;;;;;5026028;28;20026;-71
2023/10/06 03:27:49;;;;;;;30.23;24.27;;;;;;;;;;5018797;28;20353;-71
2023/10/06 03:30:19;;;;;;;35.28;26.17;;;;;;;;;;5032064;28;20026;-70
2023/10/06 03:32:49;;;;;;;36.17;25.52;;;;;;;;;;5004468;28;20021;-70
2023/10/06 03:35:24;;;;;;;31.95;24.52;;;;;;;;;;5030960;28;20041;-71
2023/10/06 03:38:07;;;;;;;31.52;24.23;;;;;;;;;;5031933;28;20020;-71
2023/10/06 03:40:45;;;;;;;34.70;25.85;;;;;;;;;;5031905;28;20026;-71
2023/10/06 03:43:13;;;;;;;33.63;25.25;;;;;;;;;;5006236;28;20025;-71
2023/10/06 03:45:40;;;;;;;31.85;24.33;;;;;;;;;;5031631;28;20040;-71
2023/10/06 03:48:11;;;;;;;32.65;25.85;;;;;;;;;;4983267;28;20161;-71
2023/10/06 03:50:44;;;;;;;31.88;25.00;;;;;;;;;;5024182;28;20036;-71
2023/10/06 03:53:11;;;;;;;35.83;25.20;;;;;;;;;;5032016;28;20110;-71
2023/10/06 03:55:42;;;;;;;32.65;25.65;;;;;;;;;;5021572;28;20116;-70
2023/10/06 03:58:09;;;;;;;34.20;26.50;;;;;;;;;;5029041;28;20057;-71
2023/10/06 04:00:40;;;;;;;34.83;26.70;;;;;;;;;;5031809;28;20104;-71
2023/10/06 04:03:09;;;;;;;30.38;25.08;;;;;;;;;;5031560;28;20048;-71
2023/10/06 04:05:37;;;;;;;32.47;25.23;;;;;;;;;;5031858;28;20018;-71
2023/10/06 04:08:07;;;;;;;32.80;25.73;;;;;;;;;;5031812;28;20113;-70
2023/10/06 04:10:58;;;;;;;32.45;24.58;;;;;;;;;;5002367;28;20032;-71
2023/10/06 04:13:25;;;;;;;32.05;23.95;;;;;;;;;;5028819;28;20045;-71
2023/10/06 04:15:52;;;;;;;29.13;23.77;;;;;;;;;;5031856;28;20473;-71
2023/10/06 04:18:21;;;;;;;30.55;24.02;;;;;;;;;;4998405;28;20042;-71
2023/10/06 04:20:47;;;;;;;32.47;25.05;;;;;;;;;;5000074;28;20026;-71
2023/10/06 04:23:14;;;;;;;30.08;23.63;;;;;;;;;;4981330;28;20487;-71
2023/10/06 04:25:46;;;;;;;33.15;24.65;;;;;;;;;;5031376;28;20056;-71
2023/10/06 04:28:16;;;;;;;32.13;24.35;;;;;;;;;;5007829;28;20022;-70
2023/10/06 04:30:43;;;;;;;32.45;25.35;;;;;;;;;;5012413;28;20478;-70
2023/10/06 04:33:10;;;;;;;31.67;25.50;;;;;;;;;;4998161;28;20026;-69
2023/10/06 04:35:40;;;;;;;31.80;24.35;;;;;;;;;;5030478;28;20040;-70
2023/10/06 04:38:09;;;;;;;31.42;23.67;;;;;;;;;;5017852;28;20379;-70
2023/10/06 04:40:35;;;;;;;32.88;24.77;;;;;;;;;;5031543;28;20057;-70
2023/10/06 04:43:02;;;;;;;34.80;24.23;;;;;;;;;;5031548;28;20032;-70
2023/10/06 04:45:31;;;;;;;33.60;25.45;;;;;;;;;;5023722;28;20104;-70
2023/10/06 04:48:00;;;;;;;32.20;24.40;;;;;;;;;;5030851;28;20361;-71
2023/10/06 04:50:26;;;;;;;31.45;24.75;;;;;;;;;;5034964;28;20040;-71
2023/10/06 04:52:54;;;;;;;32.10;24.52;;;;;;;;;;5035063;28;20017;-71
2023/10/06 04:55:20;;;;;;;29.35;24.10;;;;;;;;;;5035042;28;20049;-71
2023/10/06 04:57:47;;;;;;;31.55;25.30;;;;;;;;;;5034825;28;20033;-70
2023/10/06 05:00:15;;;;;;;29.35;23.73;;;;;;;;;;5034578;28;20102;-70
2023/10/06 05:02:44;;;;;;;28.77;24.05;;;;;;;;;;5013296;28;20029;-70
2023/10/06 05:05:23;;;;;;;32.20;24.35;;;;;;;;;;5027996;28;20021;-70
2023/10/06 05:07:49;;;;;;;33.63;26.00;;;;;;;;;;5017133;28;20519;-70
2023/10/06 05:10:25;;;;;;;30.52;23.52;;;;;;;;;;5020845;28;20022;-71
2023/10/06 05:12:51;;;;;;;29.50;23.77;;;;;;;;;;5018105;28;20040;-71
2023/10/06 05:15:23;;;;;;;30.23;23.67;;;;;;;;;;5016272;28;20095;-71
2023/10/06 05:17:56;;;;;;;33.25;24.63;;;;;;;;;;5034426;28;20112;-70
2023/10/06 05:20:23;;;;;;;30.33;24.52;;;;;;;;;;5010633;28;20372;-70
2023/10/06 05:22:50;;;;;;;32.35;25.25;;;;;;;;;;5034695;28;20025;-71
2023/10/06 05:25:19;;;;;;;34.20;25.67;;;;;;;;;;5014868;28;20391;-72
2023/10/06 05:30:49;;;;;;;31.42;23.17;;;;;;;;;;5018406;28;20052;-71
2023/10/06 05:33:15;;;;;;;30.55;23.38;;;;;;;;;;5003177;28;20472;-72
2023/10/06 05:35:41;;;;;;;30.42;23.65;;;;;;;;;;4994341;28;20041;-68
2023/10/06 05:38:13;;;;;;;33.42;23.95;;;;;;;;;;5021167;28;20025;-69
2023/10/06 05:40:46;;;;;;;31.60;23.23;;;;;;;;;;5034366;28;20057;-69
2023/10/06 05:43:12;;;;;;;32.20;22.92;;;;;;;;;;5008311;28;20032;-68
2023/10/06 05:45:39;;;;;;;30.48;22.63;;;;;;;;;;5033841;28;20026;-68
2023/10/06 05:48:09;;;;;;;31.35;23.02;;;;;;;;;;5033832;28;20100;-69
2023/10/06 05:50:36;;;;;;;30.25;21.75;;;;;;;;;;5012914;28;20522;-69
2023/10/06 05:53:04;;;;;;;31.17;21.60;;;;;;;;;;5031604;28;20028;-69
2023/10/06 05:55:31;;;;;;;30.45;21.63;;;;;;;;;;5033778;28;20040;-68
2023/10/06 05:58:01;;;;;;;26.73;20.77;;;;;;;;;;5032749;28;20505;-68
2023/10/06 06:00:31;;;;;;;26.17;20.38;;;;;;;;;;5034297;28;20482;-69
2023/10/06 06:02:58;;;;;;;28.55;21.98;;;;;;;;;;5002786;28;20038;-68
2023/10/06 06:05:30;;;;;;;31.10;21.48;;;;;;;;;;5025489;28;20057;-69
2023/10/06 06:08:00;;;;;;;36.08;21.75;;;;;;;;;;5033614;28;20021;-69
2023/10/06 06:10:29;;;;;;;25.92;19.92;;;;;;;;;;5012626;28;20018;-70
2023/10/06 06:12:55;;;;;;;29.90;20.73;;;;;;;;;;5026527;28;20022;-68
2023/10/06 06:15:21;;;;;;;31.40;19.92;;;;;;;;;;5032751;28;20508;-69
2023/10/06 06:17:49;;;;;;;28.98;20.52;;;;;;;;;;5018033;28;20042;-67
2023/10/06 06:20:18;;;;;;;28.85;20.00;;;;;;;;;;5029160;28;20018;-68
2023/10/06 06:22:53;;;;;;;24.48;19.05;;;;;;;;;;5019180;28;20493;-69
2023/10/06 06:25:19;;;;;;;28.05;19.02;;;;;;;;;;5033062;28;20021;-68
2023/10/06 06:27:45;;;;;;;33.05;19.33;;;;;;;;;;5012038;28;20025;-68
2023/10/06 06:30:11;;;;;;;25.45;19.23;;;;;;;;;;5028775;28;20475;-68
2023/10/06 06:32:37;;;;;;;29.92;19.58;;;;;;;;;;5033284;28;20021;-69
2023/10/06 06:35:07;;;;;;;27.67;19.23;;;;;;;;;;4995449;28;20116;-68
2023/10/06 06:37:34;;;;;;;30.02;18.27;;;;;;;;;;5015295;28;20476;-69
2023/10/06 06:40:00;;;;;;;26.42;18.27;;;;;;;;;;5032893;28;20037;-68
2023/10/06 06:42:26;;;;;;;28.65;18.23;;;;;;;;;;5033024;28;20029;-69
2023/10/06 06:44:52;;;;;;;22.80;18.63;;;;;;;;;;4992695;28;20073;-69
2023/10/06 06:47:18;;;;;;;21.85;18.25;;;;;;;;;;5009594;28;20053;-68
2023/10/06 06:49:44;;;;;;;29.20;19.15;;;;;;;;;;5010102;28;20018;-68
2023/10/06 06:52:12;;;;;;;21.67;17.13;;;;;;;;;;5011740;28;20133;-68
2023/10/06 06:54:39;;;;;;;23.15;18.13;;;;;;;;;;5009262;28;20034;-68
2023/10/06 06:57:05;;;;;;;24.73;17.92;;;;;;;;;;5009429;28;20089;-69
2023/10/06 06:59:31;;;;;;;24.02;18.98;;;;;;;;;;5011290;28;20030;-68
2023/10/06 07:01:58;;;;;;;25.05;18.42;;;;;;;;;;5008680;28;20030;-68
2023/10/06 07:04:27;;;;;;;22.20;18.23;;;;;;;;;;5011970;28;20098;-69
2023/10/06 07:06:53;;;;;;;29.42;19.65;;;;;;;;;;5014018;28;20022;-68
2023/10/06 07:09:19;;;;;;;26.63;19.02;;;;;;;;;;5012920;28;20025;-68
2023/10/06 07:11:45;;;;;;;22.67;17.70;;;;;;;;;;5011106;28;20022;-68
2023/10/06 07:14:14;;;;;;;25.20;18.20;;;;;;;;;;4987189;28;20025;-63
2023/10/06 07:16:42;;;;;;;21.88;16.77;;;;;;;;;;5030424;28;20037;-67
2023/10/06 07:19:09;;;;;;;25.77;18.42;;;;;;;;;;5009950;28;20114;-63
2023/10/06 07:21:39;;;;;;;22.90;16.88;;;;;;;;;;5025009;28;20021;-64
2023/10/06 07:24:05;;;;;;;22.30;16.52;;;;;;;;;;5001867;28;20081;-59
2023/10/06 07:26:32;;;;;;;24.85;17.83;;;;;;;;;;5026645;28;20033;-61
2023/10/06 07:28:59;;;;;;;21.42;16.83;;;;;;;;;;5013128;28;20030;-62
2023/10/06 07:31:26;;;;;;;25.92;18.27;;;;;;;;;;4993683;28;20026;-61
2023/10/06 07:33:57;;;;;;;22.50;16.67;;;;;;;;;;5014157;28;20017;-62
2023/10/06 07:36:24;;;;;;;21.30;17.00;;;;;;;;;;5032438;28;20033;-62
2023/10/06 07:38:50;;;;;;;22.15;17.42;;;;;;;;;;5028786;28;20013;-59
2023/10/06 07:41:26;;;;;;;22.63;16.70;;;;;;;;;;5023236;28;20029;-67
2023/10/06 07:43:53;;;;;;;24.70;18.13;;;;;;;;;;5029154;28;20021;-65
2023/10/06 07:46:19;;;;;;;21.95;16.13;;;;;;;;;;5032572;28;20095;-65
2023/10/06 07:48:46;;;;;;;22.05;16.70;;;;;;;;;;5027203;28;20027;-65
2023/10/06 07:51:16;;;;;;;20.95;15.93;;;;;;;;;;5025846;28;20026;-65
2023/10/06 07:53:43;;;;;;;25.70;17.20;;;;;;;;;;5000918;28;20053;-65
2023/10/06 07:56:09;;;;;;;27.02;17.25;;;;;;;;;;5014083;28;20474;-64
2023/10/06 07:58:41;;;;;;;20.63;15.45;;;;;;;;;;5031785;28;20054;-64
2023/10/06 08:04:10;;;;;;;26.58;15.05;;;;;;;;;;5011541;28;20052;-64
2023/10/06 08:06:36;;;;;;;22.23;14.88;;;;;;;;;;4995094;28;20034;-63
2023/10/06 08:09:05;;;;;;;19.77;14.73;;;;;;;;;;5012352;28;20076;-61
2023/10/06 08:11:34;;;;;;;18.98;15.10;;;;;;;;;;5010614;28;20033;-61
2023/10/06 10:03:04;;;;;;;27.45;21.67;;;;;;;;;;5001347;28;20093;-62
2023/10/06 10:05:30;;;;;;;25.88;19.52;;;;;;;;;;5002711;28;20065;-60
2023/10/06 10:07:56;;;;;;;28.40;20.80;;;;;;;;;;5033591;28;20530;-59
2023/10/06 10:10:22;;;;;;;24.45;19.13;;;;;;;;;;5033446;28;20041;-63
2023/10/06 10:13:01;;;;;;;27.63;20.77;;;;;;;;;;4999251;28;20018;-66
2023/10/06 10:15:37;;;;;;;26.58;20.63;;;;;;;;;;5013604;28;20484;-66
2023/10/06 10:18:04;;;;;;;25.60;20.83;;;;;;;;;;5017497;28;20079;-66
2023/10/06 10:20:32;;;;;;;29.05;22.80;;;;;;;;;;5033397;28;20029;-66
2023/10/06 10:22:59;;;;;;;28.15;21.33;;;;;;;;;;4997932;28;20057;-67
2023/10/06 10:25:44;;;;;;;28.95;21.63;;;;;;;;;;5024061;28;20057;-62
2023/10/06 10:28:13;;;;;;;29.95;22.98;;;;;;;;;;5031740;28;20040;-65
2023/10/06 10:30:59;;;;;;;25.05;21.35;;;;;;;;;;4987390;28;20494;-67
2023/10/06 10:33:29;;;;;;;28.48;22.23;;;;;;;;;;5023363;28;20063;-66
2023/10/06 10:36:17;;;;;;;31.17;24.63;;;;;;;;;;5032833;28;20045;-68
2023/10/06 10:38:44;;;;;;;30.17;24.48;;;;;;;;;;5009305;28;20479;-67
2023/10/06 10:41:11;;;;;;;29.52;24.55;;;;;;;;;;5018036;28;20026;-65
2023/10/06 10:43:37;;;;;;;31.92;23.63;;;;;;;;;;5005260;28;20028;-65
2023/10/06 10:46:09;;;;;;;29.08;24.35;;;;;;;;;;5011363;28;20459;-62
2023/10/06 10:48:37;;;;;;;39.88;27.25;;;;;;;;;;5012844;28;20569;-60
2023/10/06 10:51:05;;;;;;;29.70;24.98;;;;;;;;;;5007796;28;20029;-63
2023/10/06 10:53:41;;;;;;;31.27;23.55;;;;;;;;;;5010008;28;20034;-64
2023/10/06 10:56:13;;;;;;;32.58;24.63;;;;;;;;;;5011556;28;20029;-63
2023/10/06 10:58:45;;;;;;;28.23;24.88;;;;;;;;;;5011350;28;20157;-59
2023/10/06 11:01:29;;;;;;;34.08;25.60;;;;;;;;;;4994020;28;20026;-59
2023/10/06 11:06:55;;;;;;;34.85;25.92;;;;;;;;;;5002132;28;20029;-60
2023/10/06 11:12:03;;;;;;;30.88;25.40;;;;;;;;;;5032540;28;20037;-61
2023/10/06 11:14:30;;;;;;;32.83;25.15;;;;;;;;;;5023142;28;20014;-60
2023/10/06 11:20:01;;;;;;;32.50;25.52;;;;;;;;;;5009789;28;20064;-60
2023/10/06 11:22:28;;;;;;;30.48;26.40;;;;;;;;;;5030649;28;20029;-61
2023/10/06 11:24:57;;;;;;;32.33;27.45;;;;;;;;;;5032275;28;20027;-60
2023/10/06 11:27:24;;;;;;;34.88;28.15;;;;;;;;;;5031891;28;20013;-61
2023/10/06 11:29:51;;;;;;;36.00;28.48;;;;;;;;;;5010902;28;20053;-60
2023/10/06 11:32:18;;;;;;;33.65;27.27;;;;;;;;;;5000210;28;20446;-59
2023/10/06 11:34:45;;;;;;;36.35;27.77;;;;;;;;;;5017643;28;20026;-60
2023/10/06 11:37:11;;;;;;;35.15;26.35;;;;;;;;;;5019275;28;20116;-59
2023/10/06 11:39:38;;;;;;;34.55;28.33;;;;;;;;;;5031561;28;20017;-59
2023/10/06 11:42:22;;;;;;;35.45;28.38;;;;;;;;;;5031808;28;20034;-59
2023/10/06 11:44:48;;;;;;;34.80;29.05;;;;;;;;;;5004639;28;20017;-59
2023/10/06 11:47:14;;;;;;;36.17;29.65;;;;;;;;;;5031887;28;20108;-59
2023/10/06 11:49:56;;;;;;;41.45;31.40;;;;;;;;;;5003598;28;20528;-59
2023/10/06 11:52:45;;;;;;;34.80;29.20;;;;;;;;;;5031629;28;20030;-59
2023/10/06 11:55:14;;;;;;;38.75;29.30;;;;;;;;;;5012950;28;20037;-59
2023/10/06 11:57:47;;;;;;;36.90;29.63;;;;;;;;;;5016067;28;20025;-59
2023/10/06 12:00:19;;;;;;;42.80;31.92;;;;;;;;;;5030150;28;20108;-59
2023/10/06 12:09:26;;;;;;;32.78;28.92;;;;;;;;;;4995395;28;20112;-59
2023/10/06 12:11:55;;;;;;;32.40;26.00;;;;;;;;;;5029369;28;20072;-59
2023/10/06 12:14:21;;;;;;;38.55;31.08;;;;;;;;;;5031553;28;20267;-59
2023/10/06 12:22:55;;;;;;;30.05;25.13;;;;;;;;;;5005883;28;20121;-59
2023/10/06 12:25:25;;;;;;;33.78;27.23;;;;;;;;;;5001571;28;20472;-59
2023/10/06 12:27:51;;;;;;;35.35;27.80;;;;;;;;;;5030323;28;20057;-57
2023/10/06 12:30:18;;;;;;;33.83;26.90;;;;;;;;;;5031550;28;20029;-58
2023/10/06 12:32:47;;;;;;;40.53;31.15;;;;;;;;;;5024349;28;20076;-58
2023/10/06 12:35:18;;;;;;;36.50;30.55;;;;;;;;;;5031201;28;20037;-59
2023/10/06 12:37:45;;;;;;;41.20;30.08;;;;;;;;;;5030964;28;20030;-58
2023/10/06 12:40:13;;;;;;;43.45;31.00;;;;;;;;;;5031354;28;20025;-58
2023/10/06 12:42:39;;;;;;;33.72;27.33;;;;;;;;;;5030867;28;20025;-58
2023/10/06 12:45:12;;;;;;;35.53;27.35;;;;;;;;;;5031233;28;20026;-58
2023/10/06 12:47:38;;;;;;;36.67;29.13;;;;;;;;;;5030896;28;20075;-58
2023/10/06 12:50:06;;;;;;;33.97;27.83;;;;;;;;;;5013096;28;20029;-58
2023/10/06 12:52:34;;;;;;;34.33;27.52;;;;;;;;;;5031055;28;20044;-58
2023/10/06 12:55:05;;;;;;;27.15;24.05;;;;;;;;;;5031124;28;20041;-58
2023/10/06 12:57:34;;;;;;;32.58;26.25;;;;;;;;;;5009887;28;20049;-59
2023/10/06 13:00:00;;;;;;;32.95;26.65;;;;;;;;;;5028621;28;20083;-59
2023/10/06 13:02:26;;;;;;;33.97;26.80;;;;;;;;;;5010062;28;20474;-58
2023/10/06 13:11:03;;;;;;;39.35;26.73;;;;;;;;;;5009876;28;20057;-67
2023/10/06 13:13:29;;;;;;;36.67;27.83;;;;;;;;;;5032083;28;20425;-67
2023/10/06 13:15:56;;;;;;;36.40;29.70;;;;;;;;;;5013081;28;20026;-66
2023/10/06 13:18:22;;;;;;;32.75;27.85;;;;;;;;;;5016359;28;20111;-66
2023/10/06 13:20:48;;;;;;;36.42;29.63;;;;;;;;;;5034311;28;20029;-66
2023/10/06 13:23:14;;;;;;;34.60;27.65;;;;;;;;;;5034255;28;20476;-66
2023/10/06 13:25:41;;;;;;;34.15;26.00;;;37.40;99.90;;;;;;5023038;28;20057;-66
2023/10/06 13:28:15;;;;;;;33.20;26.75;;;38.90;99.90;;;;;;5018272;28;20314;-66
2023/10/06 13:30:43;;;;;;;30.50;24.85;;;38.80;99.90;;;;;;4997484;28;20030;-66
2023/10/06 13:33:09;;;;;;;30.50;25.65;;;38.70;99.90;;;;;;5025274;28;20017;-66
2023/10/06 13:35:36;;;;;;;31.67;24.88;;;38.70;99.90;;;;;;5002021;28;20339;-66
2023/10/06 13:38:02;;;;;;;41.75;27.27;;;38.70;99.90;;;;;;5013008;28;20430;-66
2023/10/06 13:40:29;;;;;;;29.63;25.98;;;38.70;99.90;;;;;;5029330;28;20022;-66
2023/10/06 13:42:55;;;;;;;35.90;27.75;;;38.70;99.90;;;;;;5033892;28;20031;-67
2023/10/06 13:45:25;;;;;;;35.05;27.13;;;38.70;99.90;;;;;;5033815;28;20029;-66
2023/10/06 13:47:54;;;;;;;32.92;28.05;;;38.60;99.90;;;;;;5022018;28;20357;-67
2023/10/06 13:50:27;;;;;;;30.33;26.35;;;38.60;99.90;;;;;;4994399;28;20034;-66
2023/10/06 13:52:54;;;;;;;33.40;26.88;;;38.60;99.90;;;;;;5033099;28;20021;-66
2023/10/06 13:55:21;;;;;;;30.27;25.83;;;38.60;99.90;;;;;;5033795;28;20037;-66
2023/10/06 13:57:51;;;;;;;29.75;24.88;;;38.60;99.90;;;;;;5033836;28;20119;-66
2023/10/06 14:00:29;;;;;;;34.10;28.20;;;38.60;99.90;;;;;;5033920;28;20025;-66
2023/10/06 14:03:07;;;;;;;34.78;26.77;;;38.60;99.90;;;;;;5033459;28;20337;-66
2023/10/06 14:05:38;;;;;;;33.67;26.65;;;38.60;99.90;;;;;;5018053;28;20033;-66
2023/10/06 14:08:04;;;;;;;34.80;28.60;;;38.60;99.90;;;;;;5021335;28;20025;-66
2023/10/06 14:10:32;;;;;;;35.22;27.52;;;38.60;99.90;;;;;;4995853;28;20053;-66
2023/10/06 14:13:02;;;;;;;32.90;27.75;;;38.60;99.90;;;;;;5026585;28;20026;-66
2023/10/06 14:15:41;;;;;;;29.42;25.73;;;38.60;99.90;;;;;;5033113;28;20045;-66
2023/10/06 14:18:13;;;;;;;30.60;25.85;;;38.70;99.90;;;;;;5032633;28;20029;-66
2023/10/06 14:20:45;;;;;;;33.97;26.05;;;38.70;99.90;;;;;;5005384;28;20029;-66
2023/10/06 14:23:11;;;;;;;28.13;23.98;;;38.80;99.90;;;;;;5033350;28;20057;-66
2023/10/06 14:25:38;;;;;;;31.27;26.48;;;38.90;99.90;;;;;;5033106;28;20030;-66
2023/10/06 14:28:08;;;;;;;23.30;20.88;;;39.00;99.90;;;;;;5032941;28;20029;-66
2023/10/06 14:30:35;;;;;;;27.38;22.92;;;39.00;99.90;;;;;;5024942;28;20041;-66
2023/10/06 14:33:15;;;;;;;35.97;27.08;;;39.10;99.90;;;;;;5004536;28;20084;-65
2023/10/06 14:36:26;;;;;;;26.85;22.77;;;39.00;99.90;;;;;;5032955;28;20044;-66
2023/10/06 14:46:48;;;;;;;32.83;27.67;;;39.10;99.90;;;;;;5013881;28;20041;-66
2023/10/06 14:49:15;;;;;;;29.50;24.23;;;39.00;99.90;;;;;;5012474;28;20030;-66
2023/10/06 14:51:43;;;;;;;38.03;29.83;;;39.00;99.90;;;;;;5011759;28;20025;-61
2023/10/06 14:54:12;;;;;;;38.00;28.85;;;39.00;99.90;;;;;;5011523;28;20044;-60
2023/10/06 14:56:39;;;;;;;33.80;28.27;;;38.90;99.90;;;;;;5009070;28;20066;-59
2023/10/06 14:59:08;;;;;;;35.13;27.95;;;38.80;99.90;;;;;;5010582;28;20476;-59
2023/10/06 15:01:35;;;;;;;32.33;26.02;;;38.80;99.90;;;;;;5000528;28;20505;-59
2023/10/06 15:04:01;;;;;;;35.50;28.15;;;38.80;99.90;;;;;;5025078;28;20066;-59
2023/10/06 15:06:27;;;;;;;31.33;25.33;;;38.80;99.90;;;;;;5014545;28;20113;-59
2023/10/06 15:08:54;;;;;;;34.75;29.02;;;38.80;99.90;;;;;;5001891;28;20026;-59
2023/10/06 15:11:20;;;;;;;35.47;27.58;;;38.80;99.90;;;;;;5003810;28;20075;-59
2023/10/06 15:13:47;;;;;;;34.83;27.60;;;38.80;99.90;;;;;;5000956;28;20095;-59
2023/10/06 15:16:18;;;;;;;37.28;30.33;;;38.70;99.90;;;;;;5001653;28;20040;-59
2023/10/06 15:18:47;;;;;;;38.45;30.05;;;38.70;99.90;;;;;;5017569;28;20029;-59
2023/10/06 15:21:13;;;;;;;39.58;29.35;;;38.80;99.90;;;;;;5017237;28;20048;-59
2023/10/06 15:23:39;;;;;;;40.55;30.60;;;38.80;99.90;;;;;;5002546;28;20030;-60
2023/10/06 15:26:05;;;;;;;35.90;27.20;;;38.80;99.90;;;;;;5010004;28;20037;-59
2023/10/06 15:28:33;;;;;;;35.25;27.50;;;38.80;99.90;;;;;;5004212;28;20030;-60
2023/10/06 15:30:59;;;;;;;32.83;26.67;;;38.90;99.90;;;;;;5002768;28;20029;-60
2023/10/06 15:33:30;;;;;;;31.08;26.08;;;38.80;99.90;;;;;;5010759;28;20022;-57
2023/10/06 15:35:59;;;;;;;32.50;27.58;;;38.80;99.90;;;;;;5006307;28;20096;-56
2023/10/06 15:38:25;;;;;;;34.22;27.92;;;38.80;99.90;;;;;;5029066;28;20104;-57
2023/10/06 15:41:03;;;;;;;34.17;26.60;;;38.80;99.90;;;;;;5031907;28;20466;-57
2023/10/06 15:43:29;;;;;;;33.92;26.92;;;38.80;99.90;;;;;;5008912;28;20128;-57
2023/10/06 15:45:59;;;;;;;36.10;28.27;;;38.70;99.90;;;;;;5013459;28;20507;-57
2023/10/06 15:48:25;;;;;;;33.78;25.55;;;38.70;99.90;;;;;;5028045;28;20037;-57
2023/10/06 15:51:00;;;;;;;31.23;26.02;;;38.70;99.90;;;;;;5031826;28;20052;-56
2023/10/06 15:53:28;;;;;;;34.88;26.60;;;38.60;99.90;;;;;;5007354;28;20492;-55
2023/10/06 15:55:55;;;;;;;33.75;27.92;;;38.60;99.90;;;;;;5012338;28;20037;-57
2023/10/06 15:58:21;;;;;;;32.10;26.65;;;38.60;99.90;;;;;;5012154;28;20022;-57
2023/10/06 16:00:47;;;;;;;34.55;27.45;;;38.60;99.90;;;;;;5008916;28;20045;-56
2023/10/06 16:03:13;;;;;;;32.22;25.63;;;38.50;99.90;;;;;;5023307;28;20026;-57
2023/10/06 16:05:38;;;;;;;33.03;25.27;;;38.50;99.90;;;;;;4986761;28;20025;-58
2023/10/06 16:08:04;;;;;;;37.10;26.38;;;38.50;99.90;;;;;;4983773;28;20061;-57
2023/10/06 16:10:34;;;;;;;29.10;24.75;;;38.40;99.90;;;;;;5019359;28;20061;-58
2023/10/06 16:13:03;;;;;;;33.00;25.63;;;38.40;99.90;;;;;;5023205;28;20018;-57
2023/10/06 16:15:29;;;;;;;29.92;24.83;;;38.40;99.90;;;;;;5017816;28;20363;-57
2023/10/06 16:17:54;;;;;;;30.80;24.55;;;38.40;99.90;;;;;;5031512;28;20105;-57
2023/10/06 16:20:22;;;;;;;28.77;23.67;;;38.40;99.90;;;;;;5020721;28;20361;-57
2023/10/06 16:22:51;;;;;;;28.63;23.13;;;38.30;99.90;;;;;;5012066;28;20389;-57
2023/10/06 16:25:18;;;;;;;31.38;25.10;;;38.30;99.90;;;;;;5003640;28;20022;-55
2023/10/06 16:27:44;;;;;;;29.30;24.60;;;38.30;99.90;;;;;;5028343;28;20021;-55
2023/10/06 16:30:13;;;;;;;28.13;24.15;;;38.30;99.90;;;;;;5031732;28;20078;-57
2023/10/06 16:32:40;;;;;;;33.83;24.83;;;38.30;99.90;;;;;;5022467;28;20480;-58
2023/10/06 16:35:08;;;;;;;29.77;24.45;;;38.20;99.90;;;;;;4998290;28;20029;-56